AFL1863 UDYZ-UUEE
Flight info
| Callsign | AFL1863 |
|---|---|
| Flight time | 4h 24m |
| Altitude | 33000 |
| Route | SEVAN DCT TISOT DCT DEDON DCT KUFAN DCT MKL DCT KUDAS DCT ITAKA DCT TUVGI DCT EVZUN DCT ZIZAR DCT VAZLU DCT UZZID DCT NOKLI N72 WGD G481 OBABI/K0824F340 T619 UMRAL P163 GOLRI L736 OLOPI OLOPI3F |
| Aircraft | A321/M-SDE3FGHIRWY/LB1 |
Departure
| Time | 2026-05-07 19:00 |
|---|---|
| Airport | Zvartnots International Airport (UDYZ) |
Arrival
| Time | 2026-05-07 23:24 |
|---|---|
| Airport | Sheremetyevo International Airport (UUEE) |
| Time | Latitude | Longitude | Altitude | Speed | Heading |
|---|---|---|---|---|---|
| 2026-05-07 17:08 | 40.15092 | 44.40074 | 2841 ft | 0 kts | 0° |
| 2026-05-07 17:53 | 40.15091 | 44.40074 | 2841 ft | 0 kts | 360° |
| 2026-05-07 18:39 | 40.15090 | 44.40074 | 2841 ft | 0 kts | 360° |
| 2026-05-07 18:47 | 40.15081 | 44.40074 | 2814 ft | 4 kts | 0° |
| 2026-05-07 18:48 | 40.15054 | 44.40073 | 2843 ft | 4 kts | 4° |
| 2026-05-07 18:48 | 40.15027 | 44.40069 | 2840 ft | 4 kts | 9° |
| 2026-05-07 18:48 | 40.15001 | 44.40062 | 2841 ft | 4 kts | 23° |
| 2026-05-07 18:48 | 40.14981 | 44.40045 | 2840 ft | 4 kts | 69° |
| 2026-05-07 18:49 | 40.14979 | 44.40035 | 2840 ft | 2 kts | 90° |
| 2026-05-07 18:53 | 40.14979 | 44.40041 | 2841 ft | 4 kts | 89° |
| 2026-05-07 18:53 | 40.14980 | 44.40122 | 2841 ft | 9 kts | 89° |
| 2026-05-07 18:54 | 40.14981 | 44.40195 | 2841 ft | 7 kts | 90° |
| 2026-05-07 18:54 | 40.14981 | 44.40306 | 2841 ft | 18 kts | 90° |
| 2026-05-07 18:54 | 40.14982 | 44.40466 | 2841 ft | 17 kts | 90° |
| 2026-05-07 18:54 | 40.14983 | 44.40608 | 2841 ft | 15 kts | 90° |
| 2026-05-07 18:55 | 40.14983 | 44.40734 | 2841 ft | 13 kts | 89° |
| 2026-05-07 18:55 | 40.14984 | 44.40872 | 2841 ft | 17 kts | 89° |
| 2026-05-07 18:55 | 40.14985 | 44.41018 | 2841 ft | 15 kts | 89° |
| 2026-05-07 18:55 | 40.14986 | 44.41150 | 2841 ft | 14 kts | 90° |
| 2026-05-07 18:56 | 40.14988 | 44.41264 | 2841 ft | 12 kts | 88° |
| 2026-05-07 18:56 | 40.14989 | 44.41361 | 2841 ft | 9 kts | 90° |
| 2026-05-07 18:56 | 40.14989 | 44.41414 | 2841 ft | 8 kts | 90° |
| 2026-05-07 18:56 | 40.14989 | 44.41505 | 2841 ft | 16 kts | 90° |
| 2026-05-07 18:57 | 40.14990 | 44.41631 | 2841 ft | 11 kts | 90° |
| 2026-05-07 18:57 | 40.14959 | 44.41719 | 2840 ft | 14 kts | 135° |
| 2026-05-07 18:57 | 40.14935 | 44.41744 | 2840 ft | 0 kts | 145° |
| 2026-05-07 18:58 | 40.14933 | 44.41746 | 2840 ft | 3 kts | 145° |
| 2026-05-07 18:58 | 40.14885 | 44.41785 | 2840 ft | 10 kts | 147° |
| 2026-05-07 18:58 | 40.14838 | 44.41824 | 2841 ft | 6 kts | 149° |
| 2026-05-07 18:58 | 40.14793 | 44.41838 | 2842 ft | 11 kts | 176° |
| 2026-05-07 18:59 | 40.14746 | 44.41836 | 2841 ft | 3 kts | 213° |
| 2026-05-07 18:59 | 40.14737 | 44.41761 | 2841 ft | 13 kts | 269° |
| 2026-05-07 18:59 | 40.14737 | 44.41518 | 2840 ft | 55 kts | 270° |
| 2026-05-07 18:59 | 40.14733 | 44.40731 | 2839 ft | 115 kts | 269° |
| 2026-05-07 19:00 | 40.14726 | 44.39460 | 2839 ft | 163 kts | 269° |
| 2026-05-07 19:00 | 40.14713 | 44.37842 | 3058 ft | 184 kts | 271° |
| 2026-05-07 19:00 | 40.14711 | 44.36159 | 3708 ft | 187 kts | 270° |
| 2026-05-07 19:00 | 40.14737 | 44.34457 | 4412 ft | 187 kts | 279° |
| 2026-05-07 19:01 | 40.15365 | 44.33038 | 4928 ft | 184 kts | 327° |
| 2026-05-07 19:01 | 40.16591 | 44.32741 | 5326 ft | 186 kts | 13° |
| 2026-05-07 19:01 | 40.17682 | 44.33634 | 5673 ft | 193 kts | 47° |
| 2026-05-07 19:01 | 40.18551 | 44.35076 | 5815 ft | 210 kts | 51° |
| 2026-05-07 19:02 | 40.19474 | 44.36654 | 5948 ft | 227 kts | 51° |
| 2026-05-07 19:02 | 40.20480 | 44.38370 | 6049 ft | 250 kts | 51° |
| 2026-05-07 19:02 | 40.21591 | 44.40252 | 6267 ft | 270 kts | 51° |
| 2026-05-07 19:02 | 40.22759 | 44.42219 | 6771 ft | 277 kts | 51° |
| 2026-05-07 19:03 | 40.23959 | 44.44224 | 7365 ft | 281 kts | 51° |
| 2026-05-07 19:03 | 40.25248 | 44.46150 | 7948 ft | 283 kts | 38° |
| 2026-05-07 19:03 | 40.26948 | 44.47377 | 8523 ft | 285 kts | 17° |
| 2026-05-07 19:03 | 40.28847 | 44.48158 | 9128 ft | 288 kts | 16° |
| 2026-05-07 19:04 | 40.30773 | 44.48935 | 9714 ft | 292 kts | 16° |
| 2026-05-07 19:04 | 40.32726 | 44.49724 | 10231 ft | 299 kts | 16° |
| 2026-05-07 19:04 | 40.34779 | 44.50554 | 10347 ft | 318 kts | 16° |
| 2026-05-07 19:04 | 40.36957 | 44.51439 | 10481 ft | 337 kts | 17° |
| 2026-05-07 19:05 | 40.39252 | 44.52372 | 10646 ft | 352 kts | 17° |
| 2026-05-07 19:05 | 40.41614 | 44.53335 | 11075 ft | 358 kts | 16° |
| 2026-05-07 19:05 | 40.44002 | 44.54308 | 11605 ft | 362 kts | 16° |
| 2026-05-07 19:05 | 40.46415 | 44.55292 | 12151 ft | 365 kts | 16° |
| 2026-05-07 19:06 | 40.48854 | 44.56291 | 12701 ft | 368 kts | 16° |
| 2026-05-07 19:06 | 40.53779 | 44.58306 | 13773 ft | 374 kts | 16° |
| 2026-05-07 19:06 | 40.56273 | 44.59326 | 14269 ft | 377 kts | 16° |
| 2026-05-07 19:07 | 40.58787 | 44.60354 | 14749 ft | 379 kts | 16° |
| 2026-05-07 19:07 | 40.61315 | 44.61390 | 15214 ft | 382 kts | 16° |
| 2026-05-07 19:07 | 40.63859 | 44.62434 | 15690 ft | 384 kts | 16° |
| 2026-05-07 19:07 | 40.66414 | 44.63487 | 16157 ft | 386 kts | 16° |
| 2026-05-07 19:08 | 40.68988 | 44.64551 | 16624 ft | 389 kts | 17° |
| 2026-05-07 19:08 | 40.71574 | 44.65623 | 17066 ft | 391 kts | 17° |
| 2026-05-07 19:08 | 40.74177 | 44.66700 | 17501 ft | 393 kts | 17° |
| 2026-05-07 19:08 | 40.76797 | 44.67784 | 17943 ft | 396 kts | 17° |
| 2026-05-07 19:09 | 40.79432 | 44.68870 | 18365 ft | 398 kts | 17° |
| 2026-05-07 19:09 | 40.82085 | 44.69963 | 18723 ft | 401 kts | 17° |
| 2026-05-07 19:09 | 40.84721 | 44.71054 | 19045 ft | 403 kts | 17° |
| 2026-05-07 19:09 | 40.87402 | 44.72163 | 19372 ft | 405 kts | 17° |
| 2026-05-07 19:10 | 40.90101 | 44.73279 | 19691 ft | 407 kts | 17° |
| 2026-05-07 19:10 | 40.92807 | 44.74400 | 20004 ft | 409 kts | 17° |
| 2026-05-07 19:10 | 40.95528 | 44.75527 | 20333 ft | 411 kts | 17° |
| 2026-05-07 19:10 | 40.98264 | 44.76661 | 20643 ft | 413 kts | 17° |
| 2026-05-07 19:11 | 41.01010 | 44.77804 | 20966 ft | 415 kts | 17° |
| 2026-05-07 19:11 | 41.03777 | 44.78959 | 21288 ft | 417 kts | 17° |
| 2026-05-07 19:11 | 41.06552 | 44.80118 | 21601 ft | 419 kts | 17° |
| 2026-05-07 19:11 | 41.09341 | 44.81282 | 21935 ft | 422 kts | 17° |
| 2026-05-07 19:12 | 41.12149 | 44.82457 | 22253 ft | 424 kts | 17° |
| 2026-05-07 19:12 | 41.14968 | 44.83637 | 22575 ft | 426 kts | 17° |
| 2026-05-07 19:12 | 41.17799 | 44.84818 | 22900 ft | 428 kts | 17° |
| 2026-05-07 19:12 | 41.20645 | 44.86009 | 23230 ft | 430 kts | 17° |
| 2026-05-07 19:13 | 41.23509 | 44.87209 | 23554 ft | 432 kts | 17° |
| 2026-05-07 19:13 | 41.26353 | 44.88529 | 23853 ft | 435 kts | 23° |
| 2026-05-07 19:13 | 41.29047 | 44.90365 | 24134 ft | 436 kts | 31° |
| 2026-05-07 19:13 | 41.31652 | 44.92452 | 24389 ft | 438 kts | 31° |
| 2026-05-07 19:14 | 41.34272 | 44.94557 | 24653 ft | 440 kts | 31° |
| 2026-05-07 19:14 | 41.36898 | 44.96665 | 24908 ft | 442 kts | 31° |
| 2026-05-07 19:14 | 41.39540 | 44.98789 | 25165 ft | 444 kts | 31° |
| 2026-05-07 19:14 | 41.42191 | 45.00928 | 25419 ft | 446 kts | 31° |
| 2026-05-07 19:15 | 41.44855 | 45.03072 | 25665 ft | 448 kts | 31° |
| 2026-05-07 19:15 | 41.47527 | 45.05223 | 25917 ft | 450 kts | 31° |
| 2026-05-07 19:15 | 41.50216 | 45.07389 | 26164 ft | 452 kts | 31° |
| 2026-05-07 19:15 | 41.52915 | 45.09561 | 26406 ft | 454 kts | 30° |
| 2026-05-07 19:16 | 41.55627 | 45.11747 | 26649 ft | 456 kts | 30° |
| 2026-05-07 19:16 | 41.58351 | 45.13950 | 26898 ft | 458 kts | 30° |
| 2026-05-07 19:16 | 41.61084 | 45.16164 | 27134 ft | 460 kts | 31° |
| 2026-05-07 19:16 | 41.63824 | 45.18391 | 27368 ft | 462 kts | 31° |
| 2026-05-07 19:17 | 41.66538 | 45.20726 | 27594 ft | 465 kts | 37° |
| 2026-05-07 19:17 | 41.68977 | 45.23578 | 27804 ft | 467 kts | 46° |
| 2026-05-07 19:17 | 41.71054 | 45.26928 | 28021 ft | 469 kts | 56° |
| 2026-05-07 19:17 | 41.72694 | 45.30636 | 28231 ft | 470 kts | 65° |
| 2026-05-07 19:18 | 41.73905 | 45.34758 | 28430 ft | 471 kts | 74° |
| 2026-05-07 19:18 | 41.74868 | 45.38901 | 28626 ft | 473 kts | 74° |
| 2026-05-07 19:18 | 41.75854 | 45.43116 | 28814 ft | 475 kts | 74° |
| 2026-05-07 19:18 | 41.76857 | 45.47402 | 28997 ft | 478 kts | 74° |
| 2026-05-07 19:19 | 41.77840 | 45.51599 | 29167 ft | 480 kts | 74° |
| 2026-05-07 19:19 | 41.78843 | 45.55874 | 29332 ft | 482 kts | 74° |
| 2026-05-07 19:19 | 41.79848 | 45.60156 | 29475 ft | 483 kts | 74° |
| 2026-05-07 19:19 | 41.80854 | 45.64466 | 29625 ft | 485 kts | 74° |
| 2026-05-07 19:20 | 41.81860 | 45.68794 | 29761 ft | 487 kts | 75° |
| 2026-05-07 19:20 | 41.82864 | 45.73130 | 29956 ft | 487 kts | 75° |
| 2026-05-07 19:20 | 41.83863 | 45.77470 | 30147 ft | 488 kts | 75° |
| 2026-05-07 19:20 | 41.84862 | 45.81821 | 30318 ft | 488 kts | 75° |
| 2026-05-07 19:21 | 41.85859 | 45.86170 | 30460 ft | 489 kts | 75° |
| 2026-05-07 19:21 | 41.86534 | 45.89118 | 30569 ft | 489 kts | 75° |
| 2026-05-07 19:21 | 41.87535 | 45.93487 | 30731 ft | 490 kts | 75° |
| 2026-05-07 19:21 | 41.88538 | 45.97860 | 30879 ft | 491 kts | 75° |
| 2026-05-07 19:22 | 41.89539 | 46.02237 | 31033 ft | 492 kts | 75° |
| 2026-05-07 19:22 | 41.90538 | 46.06629 | 31193 ft | 492 kts | 75° |
| 2026-05-07 19:22 | 41.91539 | 46.11030 | 31355 ft | 493 kts | 75° |
| 2026-05-07 19:22 | 41.92526 | 46.15385 | 31501 ft | 494 kts | 75° |
| 2026-05-07 19:23 | 41.93524 | 46.19799 | 31646 ft | 494 kts | 75° |
| 2026-05-07 19:23 | 41.94571 | 46.24200 | 31802 ft | 496 kts | 71° |
| 2026-05-07 19:23 | 41.96009 | 46.28421 | 31974 ft | 498 kts | 62° |
| 2026-05-07 19:23 | 41.97886 | 46.32329 | 32125 ft | 499 kts | 52° |
| 2026-05-07 19:24 | 42.00087 | 46.35937 | 32263 ft | 499 kts | 50° |
| 2026-05-07 19:24 | 42.02318 | 46.39522 | 32445 ft | 499 kts | 50° |
| 2026-05-07 19:24 | 42.04546 | 46.43114 | 32599 ft | 500 kts | 50° |
| 2026-05-07 19:24 | 42.06764 | 46.46708 | 32811 ft | 499 kts | 50° |
| 2026-05-07 19:25 | 42.08981 | 46.50307 | 32987 ft | 499 kts | 50° |
| 2026-05-07 19:25 | 42.11194 | 46.53902 | 33161 ft | 499 kts | 50° |
| 2026-05-07 19:25 | 42.15594 | 46.61053 | 33238 ft | 492 kts | 50° |
| 2026-05-07 19:26 | 42.19957 | 46.68150 | 33232 ft | 490 kts | 50° |
| 2026-05-07 19:26 | 42.24296 | 46.75245 | 33233 ft | 490 kts | 51° |
| 2026-05-07 19:27 | 42.28631 | 46.82346 | 33230 ft | 490 kts | 50° |
| 2026-05-07 19:27 | 42.32964 | 46.89439 | 33225 ft | 489 kts | 51° |
| 2026-05-07 19:28 | 42.37293 | 46.96553 | 33219 ft | 490 kts | 51° |
| 2026-05-07 19:28 | 42.41617 | 47.03684 | 33219 ft | 490 kts | 51° |
| 2026-05-07 19:29 | 42.45943 | 47.10824 | 33209 ft | 490 kts | 51° |
| 2026-05-07 19:29 | 42.50264 | 47.17974 | 33206 ft | 490 kts | 51° |
| 2026-05-07 19:30 | 42.54581 | 47.25146 | 33192 ft | 491 kts | 51° |
| 2026-05-07 19:30 | 42.58865 | 47.32274 | 33178 ft | 491 kts | 51° |
| 2026-05-07 19:31 | 42.63175 | 47.39474 | 33159 ft | 491 kts | 51° |
| 2026-05-07 19:31 | 42.67474 | 47.46676 | 33142 ft | 491 kts | 51° |
| 2026-05-07 19:32 | 42.71782 | 47.53883 | 33129 ft | 491 kts | 51° |
| 2026-05-07 19:32 | 42.76084 | 47.61107 | 33124 ft | 491 kts | 51° |
| 2026-05-07 19:33 | 42.80380 | 47.68351 | 33121 ft | 491 kts | 51° |
| 2026-05-07 19:33 | 42.84627 | 47.75656 | 33124 ft | 492 kts | 52° |
| 2026-05-07 19:34 | 42.88845 | 47.82996 | 33123 ft | 492 kts | 52° |
| 2026-05-07 19:34 | 42.93064 | 47.90343 | 33121 ft | 492 kts | 52° |
| 2026-05-07 19:35 | 42.97289 | 47.97682 | 33120 ft | 492 kts | 52° |
| 2026-05-07 19:35 | 43.01519 | 48.05027 | 33115 ft | 492 kts | 52° |
| 2026-05-07 19:36 | 43.05738 | 48.12384 | 33114 ft | 492 kts | 52° |
| 2026-05-07 19:36 | 43.09913 | 48.19712 | 33112 ft | 492 kts | 52° |
| 2026-05-07 19:37 | 43.14121 | 48.27092 | 33106 ft | 492 kts | 52° |
| 2026-05-07 19:37 | 43.18540 | 48.34220 | 33109 ft | 490 kts | 40° |
| 2026-05-07 19:38 | 43.21269 | 48.36986 | 33103 ft | 488 kts | 28° |
| 2026-05-07 19:38 | 43.24308 | 48.39004 | 33101 ft | 484 kts | 17° |
| 2026-05-07 19:38 | 43.27536 | 48.40191 | 33099 ft | 478 kts | 5° |
| 2026-05-07 19:38 | 43.30830 | 48.40544 | 33094 ft | 472 kts | 354° |
| 2026-05-07 19:39 | 43.37252 | 48.39275 | 33086 ft | 465 kts | 344° |
| 2026-05-07 19:39 | 43.43608 | 48.37541 | 33089 ft | 466 kts | 344° |
| 2026-05-07 19:40 | 43.49961 | 48.35807 | 33097 ft | 465 kts | 345° |
| 2026-05-07 19:40 | 43.56313 | 48.34090 | 33100 ft | 465 kts | 345° |
| 2026-05-07 19:41 | 43.62658 | 48.32375 | 33097 ft | 464 kts | 345° |
| 2026-05-07 19:41 | 43.68996 | 48.30664 | 33096 ft | 464 kts | 345° |
| 2026-05-07 19:42 | 43.75323 | 48.28961 | 33095 ft | 463 kts | 345° |
| 2026-05-07 19:42 | 43.81642 | 48.27244 | 33095 ft | 462 kts | 345° |
| 2026-05-07 19:43 | 43.87951 | 48.25516 | 33088 ft | 462 kts | 346° |
| 2026-05-07 19:43 | 43.94247 | 48.23800 | 33086 ft | 461 kts | 346° |
| 2026-05-07 19:44 | 44.00545 | 48.22085 | 33083 ft | 460 kts | 346° |
| 2026-05-07 19:44 | 44.06824 | 48.20367 | 33079 ft | 459 kts | 346° |
| 2026-05-07 19:45 | 44.13061 | 48.18649 | 33077 ft | 459 kts | 347° |
| 2026-05-07 19:45 | 44.19318 | 48.16928 | 33075 ft | 458 kts | 347° |
| 2026-05-07 19:46 | 44.25572 | 48.15196 | 33069 ft | 458 kts | 347° |
| 2026-05-07 19:46 | 44.31820 | 48.13474 | 33063 ft | 458 kts | 347° |
| 2026-05-07 19:47 | 44.38070 | 48.11742 | 33055 ft | 458 kts | 347° |
| 2026-05-07 19:47 | 44.44320 | 48.10011 | 33049 ft | 458 kts | 347° |
| 2026-05-07 19:48 | 44.50566 | 48.08280 | 33046 ft | 457 kts | 347° |
| 2026-05-07 19:48 | 44.56809 | 48.06543 | 33046 ft | 457 kts | 348° |
| 2026-05-07 19:49 | 44.63050 | 48.04795 | 33045 ft | 456 kts | 348° |
| 2026-05-07 19:49 | 44.69277 | 48.03044 | 33045 ft | 456 kts | 348° |
| 2026-05-07 19:50 | 44.75495 | 48.01305 | 33042 ft | 455 kts | 348° |
| 2026-05-07 19:50 | 44.81661 | 47.99577 | 33040 ft | 454 kts | 348° |
| 2026-05-07 19:51 | 44.87851 | 47.97824 | 33037 ft | 453 kts | 348° |
| 2026-05-07 19:51 | 44.94030 | 47.96075 | 33035 ft | 452 kts | 348° |
| 2026-05-07 19:52 | 45.00207 | 47.94330 | 33026 ft | 452 kts | 348° |
| 2026-05-07 19:52 | 45.06373 | 47.92589 | 33023 ft | 451 kts | 349° |
| 2026-05-07 19:53 | 45.12522 | 47.90843 | 33021 ft | 451 kts | 349° |
| 2026-05-07 19:53 | 45.18657 | 47.89090 | 33017 ft | 450 kts | 349° |
| 2026-05-07 19:54 | 45.24793 | 47.87334 | 33011 ft | 449 kts | 349° |
| 2026-05-07 19:54 | 45.30916 | 47.85588 | 33008 ft | 448 kts | 349° |
| 2026-05-07 19:55 | 45.37027 | 47.83848 | 33004 ft | 447 kts | 349° |
| 2026-05-07 19:55 | 45.43086 | 47.82105 | 32998 ft | 447 kts | 349° |
| 2026-05-07 19:56 | 45.49181 | 47.80345 | 32993 ft | 446 kts | 349° |
| 2026-05-07 19:56 | 45.55262 | 47.78586 | 32991 ft | 446 kts | 349° |
| 2026-05-07 19:57 | 45.61330 | 47.76830 | 32989 ft | 445 kts | 349° |
| 2026-05-07 19:57 | 45.67399 | 47.75071 | 32983 ft | 444 kts | 349° |
| 2026-05-07 19:58 | 45.73458 | 47.73318 | 32975 ft | 443 kts | 349° |
| 2026-05-07 19:58 | 45.79492 | 47.71558 | 32970 ft | 442 kts | 349° |
| 2026-05-07 19:59 | 45.85468 | 47.69802 | 32962 ft | 441 kts | 349° |
| 2026-05-07 19:59 | 45.91514 | 47.68035 | 32954 ft | 440 kts | 349° |
| 2026-05-07 20:00 | 45.97519 | 47.66282 | 32949 ft | 440 kts | 350° |
| 2026-05-07 20:00 | 46.03511 | 47.64525 | 32942 ft | 440 kts | 350° |
| 2026-05-07 20:01 | 46.09503 | 47.62748 | 32937 ft | 439 kts | 349° |
| 2026-05-07 20:01 | 46.15451 | 47.60987 | 32930 ft | 439 kts | 350° |
| 2026-05-07 20:02 | 46.21367 | 47.58775 | 32925 ft | 441 kts | 338° |
| 2026-05-07 20:02 | 46.26512 | 47.53985 | 32923 ft | 444 kts | 317° |
| 2026-05-07 20:03 | 46.30278 | 47.46909 | 32919 ft | 446 kts | 304° |
| 2026-05-07 20:03 | 46.33637 | 47.39352 | 32915 ft | 447 kts | 304° |
| 2026-05-07 20:04 | 46.36999 | 47.31784 | 32920 ft | 447 kts | 304° |
| 2026-05-07 20:04 | 46.39791 | 47.25499 | 32927 ft | 446 kts | 304° |
| 2026-05-07 20:05 | 46.43716 | 47.16642 | 32929 ft | 446 kts | 304° |
| 2026-05-07 20:05 | 46.46494 | 47.10346 | 32933 ft | 446 kts | 304° |
| 2026-05-07 20:06 | 46.49838 | 47.02749 | 32937 ft | 446 kts | 304° |
| 2026-05-07 20:06 | 46.53169 | 46.95144 | 32947 ft | 446 kts | 303° |
| 2026-05-07 20:07 | 46.56493 | 46.87546 | 32949 ft | 446 kts | 304° |
| 2026-05-07 20:07 | 46.59825 | 46.79942 | 32954 ft | 445 kts | 303° |
| 2026-05-07 20:08 | 46.63138 | 46.72331 | 32960 ft | 445 kts | 303° |
| 2026-05-07 20:08 | 46.66441 | 46.64703 | 32962 ft | 445 kts | 303° |
| 2026-05-07 20:09 | 46.69735 | 46.57087 | 32965 ft | 444 kts | 303° |
| 2026-05-07 20:10 | 46.74672 | 46.45663 | 32966 ft | 444 kts | 303° |
| 2026-05-07 20:10 | 46.77951 | 46.38041 | 32966 ft | 443 kts | 303° |
| 2026-05-07 20:11 | 46.81224 | 46.30429 | 32972 ft | 443 kts | 303° |
| 2026-05-07 20:11 | 46.84484 | 46.22809 | 32973 ft | 442 kts | 303° |
| 2026-05-07 20:12 | 46.87731 | 46.15185 | 32979 ft | 442 kts | 303° |
| 2026-05-07 20:12 | 46.91107 | 46.07705 | 32978 ft | 439 kts | 311° |
| 2026-05-07 20:13 | 46.95693 | 46.01914 | 32977 ft | 435 kts | 330° |
| 2026-05-07 20:13 | 47.01072 | 45.98051 | 32976 ft | 434 kts | 336° |
| 2026-05-07 20:14 | 47.06519 | 45.94236 | 32979 ft | 434 kts | 335° |
| 2026-05-07 20:14 | 47.11969 | 45.90394 | 32980 ft | 434 kts | 335° |
| 2026-05-07 20:15 | 47.17415 | 45.86557 | 32984 ft | 434 kts | 335° |
| 2026-05-07 20:15 | 47.22851 | 45.82730 | 32980 ft | 433 kts | 335° |
| 2026-05-07 20:16 | 47.28290 | 45.78897 | 32984 ft | 433 kts | 335° |
| 2026-05-07 20:16 | 47.33717 | 45.75048 | 32981 ft | 433 kts | 335° |
| 2026-05-07 20:17 | 47.39147 | 45.71192 | 32984 ft | 433 kts | 335° |
| 2026-05-07 20:17 | 47.44577 | 45.67334 | 32985 ft | 433 kts | 335° |
| 2026-05-07 20:18 | 47.49998 | 45.63470 | 32981 ft | 433 kts | 335° |
| 2026-05-07 20:18 | 47.55423 | 45.59602 | 32985 ft | 433 kts | 335° |
| 2026-05-07 20:19 | 47.60846 | 45.55726 | 32979 ft | 433 kts | 335° |
| 2026-05-07 20:19 | 47.66265 | 45.51845 | 32977 ft | 433 kts | 335° |
| 2026-05-07 20:20 | 47.71684 | 45.47944 | 32974 ft | 433 kts | 335° |
| 2026-05-07 20:20 | 47.77099 | 45.44038 | 32972 ft | 433 kts | 335° |
| 2026-05-07 20:21 | 47.82080 | 45.39050 | 32973 ft | 434 kts | 319° |
| 2026-05-07 20:21 | 47.86546 | 45.32994 | 32971 ft | 434 kts | 319° |
| 2026-05-07 20:22 | 47.90992 | 45.26974 | 32967 ft | 435 kts | 319° |
| 2026-05-07 20:22 | 47.95470 | 45.20918 | 32971 ft | 435 kts | 319° |
| 2026-05-07 20:23 | 47.99941 | 45.14841 | 32968 ft | 435 kts | 319° |
| 2026-05-07 20:23 | 48.04633 | 45.09184 | 32967 ft | 433 kts | 327° |
| 2026-05-07 20:24 | 48.09643 | 45.04177 | 32969 ft | 433 kts | 327° |
| 2026-05-07 20:24 | 48.14656 | 44.99161 | 32968 ft | 433 kts | 327° |
| 2026-05-07 20:25 | 48.19660 | 44.94133 | 32967 ft | 433 kts | 327° |
| 2026-05-07 20:25 | 48.24658 | 44.89099 | 32966 ft | 433 kts | 327° |
| 2026-05-07 20:26 | 48.29648 | 44.84042 | 32970 ft | 433 kts | 327° |
| 2026-05-07 20:26 | 48.34633 | 44.78971 | 32968 ft | 432 kts | 327° |
| 2026-05-07 20:27 | 48.39618 | 44.73908 | 32969 ft | 432 kts | 327° |
| 2026-05-07 20:27 | 48.44602 | 44.68843 | 32966 ft | 432 kts | 328° |
| 2026-05-07 20:28 | 48.50046 | 44.65250 | 32967 ft | 428 kts | 349° |
| 2026-05-07 20:28 | 48.52984 | 44.64673 | 32968 ft | 426 kts | 360° |
| 2026-05-07 20:28 | 48.55934 | 44.64944 | 32967 ft | 425 kts | 10° |
| 2026-05-07 20:29 | 48.61604 | 44.67422 | 32966 ft | 425 kts | 18° |
| 2026-05-07 20:29 | 48.67214 | 44.70202 | 32966 ft | 425 kts | 18° |
| 2026-05-07 20:30 | 48.72834 | 44.72989 | 32970 ft | 425 kts | 18° |
| 2026-05-07 20:30 | 48.78453 | 44.75794 | 32974 ft | 425 kts | 18° |
| 2026-05-07 20:31 | 48.84064 | 44.78608 | 32977 ft | 425 kts | 18° |
| 2026-05-07 20:31 | 48.89736 | 44.81132 | 32969 ft | 425 kts | 15° |
| 2026-05-07 20:32 | 48.95411 | 44.83402 | 32965 ft | 425 kts | 15° |
| 2026-05-07 20:32 | 49.01121 | 44.85718 | 32967 ft | 425 kts | 15° |
| 2026-05-07 20:33 | 49.06820 | 44.88122 | 32964 ft | 425 kts | 15° |
| 2026-05-07 20:33 | 49.12513 | 44.90551 | 32963 ft | 425 kts | 15° |
| 2026-05-07 20:34 | 49.18208 | 44.92975 | 32961 ft | 425 kts | 15° |
| 2026-05-07 20:34 | 49.23908 | 44.95399 | 32962 ft | 425 kts | 15° |
| 2026-05-07 20:35 | 49.29609 | 44.97818 | 32968 ft | 425 kts | 15° |
| 2026-05-07 20:35 | 49.35306 | 45.00259 | 32971 ft | 425 kts | 15° |
| 2026-05-07 20:36 | 49.41014 | 45.02714 | 32966 ft | 426 kts | 15° |
| 2026-05-07 20:36 | 49.46717 | 45.05161 | 32969 ft | 425 kts | 15° |
| 2026-05-07 20:37 | 49.52419 | 45.07610 | 32973 ft | 425 kts | 15° |
| 2026-05-07 20:37 | 49.58118 | 45.10067 | 32971 ft | 425 kts | 15° |
| 2026-05-07 20:38 | 49.63810 | 45.12530 | 32971 ft | 425 kts | 16° |
| 2026-05-07 20:38 | 49.69505 | 45.15012 | 32973 ft | 425 kts | 16° |
| 2026-05-07 20:39 | 49.75202 | 45.17503 | 32975 ft | 425 kts | 16° |
| 2026-05-07 20:39 | 49.80891 | 45.19996 | 32968 ft | 425 kts | 16° |
| 2026-05-07 20:40 | 49.86578 | 45.22485 | 32966 ft | 425 kts | 16° |
| 2026-05-07 20:40 | 49.92268 | 45.24987 | 32977 ft | 425 kts | 16° |
| 2026-05-07 20:41 | 49.97957 | 45.27498 | 32974 ft | 425 kts | 16° |
| 2026-05-07 20:41 | 50.03612 | 45.29938 | 32977 ft | 424 kts | 14° |
| 2026-05-07 20:42 | 50.09375 | 45.31940 | 32970 ft | 424 kts | 12° |
| 2026-05-07 20:42 | 50.15161 | 45.33754 | 32981 ft | 424 kts | 12° |
| 2026-05-07 20:43 | 50.20933 | 45.35660 | 32965 ft | 423 kts | 12° |
| 2026-05-07 20:43 | 50.26683 | 45.37628 | 32964 ft | 423 kts | 12° |
| 2026-05-07 20:44 | 50.32431 | 45.39609 | 32967 ft | 423 kts | 12° |
| 2026-05-07 20:44 | 50.38179 | 45.41589 | 32969 ft | 423 kts | 12° |
| 2026-05-07 20:45 | 50.43925 | 45.43567 | 32969 ft | 423 kts | 12° |
| 2026-05-07 20:45 | 50.49672 | 45.45555 | 32965 ft | 423 kts | 12° |
| 2026-05-07 20:46 | 50.55414 | 45.47556 | 32967 ft | 423 kts | 12° |
| 2026-05-07 20:46 | 50.61154 | 45.49555 | 32966 ft | 422 kts | 12° |
| 2026-05-07 20:47 | 50.66896 | 45.51553 | 32969 ft | 422 kts | 12° |
| 2026-05-07 20:47 | 50.72637 | 45.53553 | 32967 ft | 422 kts | 12° |
| 2026-05-07 20:48 | 50.78195 | 45.56282 | 32968 ft | 422 kts | 26° |
| 2026-05-07 20:48 | 50.83009 | 45.61559 | 32963 ft | 423 kts | 39° |
| 2026-05-07 20:49 | 50.86796 | 45.66559 | 32963 ft | 423 kts | 39° |
| 2026-05-07 20:49 | 50.92060 | 45.73495 | 32954 ft | 424 kts | 39° |
| 2026-05-07 20:50 | 50.96590 | 45.79488 | 32954 ft | 424 kts | 39° |
| 2026-05-07 20:50 | 51.01113 | 45.85501 | 32948 ft | 424 kts | 39° |
| 2026-05-07 20:51 | 51.04874 | 45.90504 | 32951 ft | 424 kts | 39° |
| 2026-05-07 20:51 | 51.09398 | 45.96531 | 32956 ft | 424 kts | 39° |
| 2026-05-07 20:52 | 51.13924 | 46.02586 | 32949 ft | 425 kts | 39° |
| 2026-05-07 20:52 | 51.18447 | 46.08661 | 32952 ft | 425 kts | 39° |
| 2026-05-07 20:53 | 51.22965 | 46.14740 | 32949 ft | 425 kts | 39° |
| 2026-05-07 20:53 | 51.27496 | 46.20844 | 32952 ft | 426 kts | 39° |
| 2026-05-07 20:54 | 51.32018 | 46.26951 | 32950 ft | 426 kts | 39° |
| 2026-05-07 20:54 | 51.36510 | 46.33037 | 32955 ft | 426 kts | 39° |
| 2026-05-07 20:55 | 51.41019 | 46.39188 | 32958 ft | 426 kts | 39° |
| 2026-05-07 20:55 | 51.45528 | 46.45348 | 32960 ft | 426 kts | 39° |
| 2026-05-07 20:56 | 51.50040 | 46.51500 | 32958 ft | 426 kts | 39° |
| 2026-05-07 20:56 | 51.54549 | 46.57669 | 32956 ft | 426 kts | 39° |
| 2026-05-07 20:57 | 51.59055 | 46.63859 | 32958 ft | 426 kts | 39° |
| 2026-05-07 20:57 | 51.63530 | 46.70021 | 32952 ft | 426 kts | 40° |
| 2026-05-07 20:58 | 51.68051 | 46.76278 | 32953 ft | 426 kts | 40° |
| 2026-05-07 20:58 | 51.72537 | 46.82501 | 32947 ft | 425 kts | 40° |
| 2026-05-07 20:59 | 51.76988 | 46.88710 | 32949 ft | 425 kts | 41° |
| 2026-05-07 20:59 | 51.80695 | 46.96126 | 32946 ft | 427 kts | 60° |
| 2026-05-07 21:00 | 51.83151 | 47.04897 | 32944 ft | 428 kts | 65° |
| 2026-05-07 21:00 | 51.85515 | 47.13744 | 32942 ft | 429 kts | 65° |
| 2026-05-07 21:01 | 51.87870 | 47.22603 | 32943 ft | 429 kts | 65° |
| 2026-05-07 21:01 | 51.90218 | 47.31487 | 32942 ft | 429 kts | 65° |
| 2026-05-07 21:02 | 51.92565 | 47.40372 | 32943 ft | 429 kts | 65° |
| 2026-05-07 21:02 | 51.94901 | 47.49269 | 32935 ft | 429 kts | 66° |
| 2026-05-07 21:03 | 51.97486 | 47.59144 | 32945 ft | 429 kts | 66° |
| 2026-05-07 21:03 | 51.99813 | 47.68064 | 32934 ft | 429 kts | 66° |
| 2026-05-07 21:04 | 52.02131 | 47.76998 | 32941 ft | 429 kts | 66° |
| 2026-05-07 21:04 | 52.04449 | 47.85945 | 32937 ft | 430 kts | 66° |
| 2026-05-07 21:05 | 52.06752 | 47.94904 | 32935 ft | 430 kts | 66° |
| 2026-05-07 21:05 | 52.09050 | 48.03879 | 32934 ft | 430 kts | 66° |
| 2026-05-07 21:06 | 52.11334 | 48.12809 | 32931 ft | 430 kts | 66° |
| 2026-05-07 21:06 | 52.13621 | 48.21797 | 32932 ft | 430 kts | 66° |
| 2026-05-07 21:07 | 52.15904 | 48.30797 | 32933 ft | 430 kts | 66° |
| 2026-05-07 21:07 | 52.18178 | 48.39796 | 32927 ft | 430 kts | 66° |
| 2026-05-07 21:08 | 52.20084 | 48.47345 | 32922 ft | 430 kts | 67° |
| 2026-05-07 21:08 | 52.22350 | 48.56373 | 32923 ft | 430 kts | 67° |
| 2026-05-07 21:09 | 52.24603 | 48.65415 | 32924 ft | 430 kts | 67° |
| 2026-05-07 21:09 | 52.26832 | 48.74396 | 32921 ft | 430 kts | 67° |
| 2026-05-07 21:10 | 52.29072 | 48.83442 | 32920 ft | 430 kts | 67° |
| 2026-05-07 21:10 | 52.31304 | 48.92504 | 32921 ft | 430 kts | 67° |
| 2026-05-07 21:11 | 52.33530 | 49.01585 | 32921 ft | 430 kts | 67° |
| 2026-05-07 21:11 | 52.36860 | 49.15235 | 32923 ft | 431 kts | 68° |
| 2026-05-07 21:12 | 52.39064 | 49.24339 | 32925 ft | 431 kts | 68° |
| 2026-05-07 21:12 | 52.41269 | 49.33466 | 32921 ft | 430 kts | 68° |
| 2026-05-07 21:13 | 52.43467 | 49.42575 | 32917 ft | 430 kts | 68° |
| 2026-05-07 21:13 | 52.45666 | 49.51707 | 32920 ft | 431 kts | 68° |
| 2026-05-07 21:14 | 52.47853 | 49.60843 | 32917 ft | 431 kts | 68° |
| 2026-05-07 21:14 | 52.50035 | 49.70002 | 32914 ft | 431 kts | 68° |
| 2026-05-07 21:15 | 52.52200 | 49.79162 | 32914 ft | 431 kts | 68° |
| 2026-05-07 21:15 | 52.54356 | 49.88332 | 32913 ft | 425 kts | 68° |
| 2026-05-07 21:16 | 52.55398 | 49.92782 | 32910 ft | 407 kts | 68° |
| 2026-05-07 21:16 | 52.56392 | 49.97030 | 32913 ft | 391 kts | 68° |
| 2026-05-07 21:16 | 52.57174 | 50.01261 | 32910 ft | 386 kts | 80° |
| 2026-05-07 21:16 | 52.57289 | 50.05652 | 32911 ft | 386 kts | 96° |
| 2026-05-07 21:17 | 52.56613 | 50.09908 | 32914 ft | 387 kts | 114° |
| 2026-05-07 21:17 | 52.55149 | 50.13614 | 32913 ft | 389 kts | 133° |
| 2026-05-07 21:17 | 52.53043 | 50.16402 | 32908 ft | 391 kts | 151° |
| 2026-05-07 21:17 | 52.50512 | 50.18003 | 32910 ft | 393 kts | 169° |
| 2026-05-07 21:18 | 52.47790 | 50.18255 | 32911 ft | 394 kts | 187° |
| 2026-05-07 21:18 | 52.45149 | 50.17132 | 32906 ft | 394 kts | 205° |
| 2026-05-07 21:18 | 52.42842 | 50.14739 | 32907 ft | 393 kts | 223° |
| 2026-05-07 21:18 | 52.41102 | 50.11335 | 32898 ft | 391 kts | 241° |
| 2026-05-07 21:19 | 52.38691 | 50.03364 | 32888 ft | 391 kts | 247° |
| 2026-05-07 21:19 | 52.36615 | 49.95179 | 32883 ft | 393 kts | 249° |
| 2026-05-07 21:20 | 52.35708 | 49.90981 | 32880 ft | 391 kts | 260° |
| 2026-05-07 21:20 | 52.35518 | 49.86573 | 32883 ft | 388 kts | 277° |
| 2026-05-07 21:20 | 52.36109 | 49.82304 | 32881 ft | 384 kts | 294° |
| 2026-05-07 21:20 | 52.37431 | 49.78538 | 32880 ft | 381 kts | 311° |
| 2026-05-07 21:21 | 52.39357 | 49.75626 | 32880 ft | 377 kts | 329° |
| 2026-05-07 21:21 | 52.41711 | 49.73786 | 32881 ft | 375 kts | 346° |
| 2026-05-07 21:21 | 52.44276 | 49.73158 | 32898 ft | 374 kts | 2° |
| 2026-05-07 21:21 | 52.46847 | 49.73787 | 32918 ft | 377 kts | 19° |
| 2026-05-07 21:22 | 52.49204 | 49.75646 | 32917 ft | 377 kts | 36° |
| 2026-05-07 21:22 | 52.51128 | 49.78568 | 32919 ft | 379 kts | 52° |
| 2026-05-07 21:22 | 52.53667 | 49.86161 | 32915 ft | 381 kts | 65° |
| 2026-05-07 21:23 | 52.55738 | 49.94201 | 32913 ft | 382 kts | 67° |
| 2026-05-07 21:23 | 52.57341 | 50.02502 | 32908 ft | 383 kts | 86° |
| 2026-05-07 21:24 | 52.57125 | 50.06851 | 32902 ft | 384 kts | 104° |
| 2026-05-07 21:24 | 52.56104 | 50.10892 | 32898 ft | 385 kts | 122° |
| 2026-05-07 21:24 | 52.54360 | 50.14212 | 32883 ft | 386 kts | 141° |
| 2026-05-07 21:24 | 52.52060 | 50.16449 | 32876 ft | 386 kts | 160° |
| 2026-05-07 21:25 | 52.49474 | 50.17369 | 32894 ft | 388 kts | 178° |
| 2026-05-07 21:25 | 52.46786 | 50.16909 | 32904 ft | 392 kts | 197° |
| 2026-05-07 21:25 | 52.44313 | 50.15054 | 32908 ft | 393 kts | 216° |
| 2026-05-07 21:25 | 52.42336 | 50.11995 | 32908 ft | 393 kts | 235° |
| 2026-05-07 21:26 | 52.39790 | 50.04094 | 32905 ft | 394 kts | 247° |
| 2026-05-07 21:26 | 52.37729 | 49.95798 | 32904 ft | 393 kts | 258° |
| 2026-05-07 21:27 | 52.37595 | 49.91400 | 32906 ft | 387 kts | 283° |
| 2026-05-07 21:27 | 52.38505 | 49.87304 | 32902 ft | 383 kts | 302° |
| 2026-05-07 21:27 | 52.40102 | 49.83853 | 32891 ft | 380 kts | 317° |
| 2026-05-07 21:27 | 52.42185 | 49.81219 | 32885 ft | 377 kts | 333° |
| 2026-05-07 21:28 | 52.44616 | 49.79691 | 32879 ft | 375 kts | 351° |
| 2026-05-07 21:28 | 52.47206 | 49.79487 | 32876 ft | 372 kts | 9° |
| 2026-05-07 21:28 | 52.49686 | 49.80633 | 32899 ft | 373 kts | 27° |
| 2026-05-07 21:28 | 52.51819 | 49.82960 | 32915 ft | 376 kts | 44° |
| 2026-05-07 21:29 | 52.53474 | 49.86361 | 32918 ft | 379 kts | 60° |
| 2026-05-07 21:29 | 52.54811 | 49.90122 | 32913 ft | 384 kts | 51° |
| 2026-05-07 21:29 | 52.56736 | 49.93161 | 32917 ft | 388 kts | 34° |
| 2026-05-07 21:29 | 52.59101 | 49.95188 | 32916 ft | 393 kts | 17° |
| 2026-05-07 21:30 | 52.61799 | 49.95932 | 32913 ft | 398 kts | 358° |
| 2026-05-07 21:30 | 52.64548 | 49.95152 | 32916 ft | 405 kts | 339° |
| 2026-05-07 21:30 | 52.67022 | 49.92883 | 32913 ft | 412 kts | 320° |
| 2026-05-07 21:30 | 52.68928 | 49.89333 | 32917 ft | 420 kts | 301° |
| 2026-05-07 21:31 | 52.71238 | 49.80330 | 32921 ft | 433 kts | 292° |
| 2026-05-07 21:31 | 52.73439 | 49.71005 | 32918 ft | 438 kts | 292° |
| 2026-05-07 21:32 | 52.75651 | 49.61632 | 32921 ft | 438 kts | 292° |
| 2026-05-07 21:32 | 52.77868 | 49.52242 | 32928 ft | 439 kts | 292° |
| 2026-05-07 21:33 | 52.80091 | 49.42845 | 32933 ft | 439 kts | 292° |
| 2026-05-07 21:33 | 52.82292 | 49.33438 | 32934 ft | 439 kts | 292° |
| 2026-05-07 21:34 | 52.84472 | 49.24075 | 32937 ft | 439 kts | 292° |
| 2026-05-07 21:34 | 52.86661 | 49.14645 | 32938 ft | 439 kts | 292° |
| 2026-05-07 21:35 | 52.88839 | 49.05212 | 32941 ft | 439 kts | 292° |
| 2026-05-07 21:35 | 52.91009 | 48.95779 | 32942 ft | 438 kts | 292° |
| 2026-05-07 21:36 | 52.93172 | 48.86330 | 32942 ft | 438 kts | 292° |
| 2026-05-07 21:36 | 52.95804 | 48.77248 | 32941 ft | 437 kts | 299° |
| 2026-05-07 21:37 | 52.98625 | 48.68314 | 32949 ft | 437 kts | 298° |
| 2026-05-07 21:37 | 53.01423 | 48.59377 | 32950 ft | 436 kts | 298° |
| 2026-05-07 21:38 | 53.04203 | 48.50431 | 32950 ft | 436 kts | 298° |
| 2026-05-07 21:38 | 53.06983 | 48.41480 | 32954 ft | 435 kts | 298° |
| 2026-05-07 21:39 | 53.09773 | 48.32549 | 32957 ft | 435 kts | 302° |
| 2026-05-07 21:39 | 53.13546 | 48.24787 | 32961 ft | 431 kts | 317° |
| 2026-05-07 21:40 | 53.17899 | 48.17890 | 32956 ft | 432 kts | 317° |
| 2026-05-07 21:40 | 53.22213 | 48.11020 | 32958 ft | 432 kts | 317° |
| 2026-05-07 21:41 | 53.26548 | 48.04077 | 32954 ft | 432 kts | 317° |
| 2026-05-07 21:41 | 53.30879 | 47.97121 | 32959 ft | 432 kts | 317° |
| 2026-05-07 21:42 | 53.35214 | 47.90144 | 32962 ft | 432 kts | 317° |
| 2026-05-07 21:42 | 53.39543 | 47.83142 | 32960 ft | 433 kts | 317° |
| 2026-05-07 21:43 | 53.43873 | 47.76123 | 32958 ft | 433 kts | 317° |
| 2026-05-07 21:43 | 53.48209 | 47.69098 | 32964 ft | 433 kts | 317° |
| 2026-05-07 21:44 | 53.52539 | 47.62041 | 32963 ft | 434 kts | 317° |
| 2026-05-07 21:44 | 53.56863 | 47.54967 | 32962 ft | 434 kts | 317° |
| 2026-05-07 21:45 | 53.61184 | 47.47873 | 32962 ft | 434 kts | 317° |
| 2026-05-07 21:45 | 53.65508 | 47.40759 | 32963 ft | 434 kts | 317° |
| 2026-05-07 21:46 | 53.69832 | 47.33635 | 32960 ft | 435 kts | 317° |
| 2026-05-07 21:46 | 53.74145 | 47.26489 | 32963 ft | 435 kts | 316° |
| 2026-05-07 21:47 | 53.78456 | 47.19320 | 32962 ft | 435 kts | 316° |
| 2026-05-07 21:47 | 53.82759 | 47.12149 | 32965 ft | 434 kts | 316° |
| 2026-05-07 21:48 | 53.87063 | 47.04960 | 32972 ft | 434 kts | 316° |
| 2026-05-07 21:48 | 53.91354 | 46.97754 | 32966 ft | 434 kts | 316° |
| 2026-05-07 21:49 | 53.95648 | 46.90533 | 32972 ft | 434 kts | 316° |
| 2026-05-07 21:49 | 53.99906 | 46.83357 | 32970 ft | 434 kts | 316° |
| 2026-05-07 21:50 | 54.04182 | 46.76130 | 32972 ft | 434 kts | 315° |
| 2026-05-07 21:50 | 54.08454 | 46.68877 | 32971 ft | 433 kts | 315° |
| 2026-05-07 21:51 | 54.12720 | 46.61615 | 32980 ft | 433 kts | 315° |
| 2026-05-07 21:51 | 54.16977 | 46.54357 | 32974 ft | 433 kts | 315° |
| 2026-05-07 21:52 | 54.21228 | 46.47089 | 32976 ft | 432 kts | 315° |
| 2026-05-07 21:52 | 54.25475 | 46.39804 | 32980 ft | 432 kts | 315° |
| 2026-05-07 21:53 | 54.28988 | 46.33743 | 32979 ft | 432 kts | 315° |
| 2026-05-07 21:53 | 54.33933 | 46.25207 | 32986 ft | 431 kts | 315° |
| 2026-05-07 21:54 | 54.37443 | 46.19129 | 32969 ft | 431 kts | 315° |
| 2026-05-07 21:54 | 54.41653 | 46.11803 | 32984 ft | 431 kts | 314° |
| 2026-05-07 21:55 | 54.45859 | 46.04474 | 32984 ft | 431 kts | 314° |
| 2026-05-07 21:55 | 54.50064 | 45.97125 | 32984 ft | 430 kts | 314° |
| 2026-05-07 21:56 | 54.54261 | 45.89769 | 32987 ft | 430 kts | 314° |
| 2026-05-07 21:56 | 54.58443 | 45.82409 | 32985 ft | 430 kts | 314° |
| 2026-05-07 21:57 | 54.62616 | 45.75035 | 32985 ft | 429 kts | 314° |
| 2026-05-07 21:57 | 54.66779 | 45.67649 | 32977 ft | 429 kts | 314° |
| 2026-05-07 21:58 | 54.70944 | 45.60259 | 32980 ft | 429 kts | 314° |
| 2026-05-07 21:58 | 54.75443 | 45.53532 | 32963 ft | 429 kts | 327° |
| 2026-05-07 21:59 | 54.80925 | 45.49470 | 32962 ft | 430 kts | 342° |
| 2026-05-07 21:59 | 54.86650 | 45.46433 | 32958 ft | 431 kts | 342° |
| 2026-05-07 22:00 | 54.92377 | 45.43372 | 32955 ft | 430 kts | 341° |
| 2026-05-07 22:00 | 54.98096 | 45.40281 | 32956 ft | 430 kts | 341° |
| 2026-05-07 22:01 | 55.03814 | 45.37179 | 32955 ft | 430 kts | 341° |
| 2026-05-07 22:01 | 55.09519 | 45.34089 | 32951 ft | 429 kts | 341° |
| 2026-05-07 22:02 | 55.15224 | 45.31001 | 32944 ft | 429 kts | 341° |
| 2026-05-07 22:02 | 55.20924 | 45.27899 | 32946 ft | 429 kts | 341° |
| 2026-05-07 22:03 | 55.26586 | 45.24805 | 32950 ft | 429 kts | 341° |
| 2026-05-07 22:03 | 55.32281 | 45.21677 | 32944 ft | 429 kts | 341° |
| 2026-05-07 22:04 | 55.37975 | 45.18548 | 32941 ft | 428 kts | 341° |
| 2026-05-07 22:04 | 55.43669 | 45.15410 | 32937 ft | 428 kts | 341° |
| 2026-05-07 22:05 | 55.49362 | 45.12259 | 32939 ft | 428 kts | 340° |
| 2026-05-07 22:05 | 55.55043 | 45.09087 | 32940 ft | 428 kts | 340° |
| 2026-05-07 22:06 | 55.60736 | 45.05924 | 32936 ft | 428 kts | 340° |
| 2026-05-07 22:06 | 55.66421 | 45.02759 | 32932 ft | 428 kts | 340° |
| 2026-05-07 22:07 | 55.72092 | 44.99578 | 32933 ft | 427 kts | 340° |
| 2026-05-07 22:07 | 55.77762 | 44.96390 | 32934 ft | 427 kts | 340° |
| 2026-05-07 22:08 | 55.83425 | 44.93201 | 32928 ft | 427 kts | 340° |
| 2026-05-07 22:08 | 55.89080 | 44.90005 | 32923 ft | 426 kts | 340° |
| 2026-05-07 22:09 | 55.94738 | 44.86802 | 32925 ft | 426 kts | 340° |
| 2026-05-07 22:09 | 56.00351 | 44.83617 | 32925 ft | 426 kts | 340° |
| 2026-05-07 22:10 | 56.05994 | 44.80397 | 32923 ft | 425 kts | 340° |
| 2026-05-07 22:10 | 56.11627 | 44.77174 | 32918 ft | 425 kts | 340° |
| 2026-05-07 22:11 | 56.17249 | 44.73954 | 32910 ft | 424 kts | 340° |
| 2026-05-07 22:11 | 56.22874 | 44.70721 | 32907 ft | 424 kts | 339° |
| 2026-05-07 22:12 | 56.28495 | 44.67473 | 32906 ft | 424 kts | 339° |
| 2026-05-07 22:12 | 56.34105 | 44.64219 | 32905 ft | 424 kts | 339° |
| 2026-05-07 22:13 | 56.39722 | 44.60956 | 32905 ft | 424 kts | 339° |
| 2026-05-07 22:13 | 56.45332 | 44.57682 | 32901 ft | 423 kts | 339° |
| 2026-05-07 22:14 | 56.50934 | 44.54404 | 32904 ft | 423 kts | 339° |
| 2026-05-07 22:14 | 56.56536 | 44.51127 | 32896 ft | 423 kts | 339° |
| 2026-05-07 22:15 | 56.62130 | 44.47831 | 32898 ft | 422 kts | 339° |
| 2026-05-07 22:15 | 56.67711 | 44.44531 | 32896 ft | 422 kts | 339° |
| 2026-05-07 22:16 | 56.73290 | 44.41222 | 32897 ft | 422 kts | 339° |
| 2026-05-07 22:16 | 56.78861 | 44.37916 | 32900 ft | 421 kts | 339° |
| 2026-05-07 22:17 | 56.84444 | 44.34592 | 32901 ft | 421 kts | 338° |
| 2026-05-07 22:17 | 56.89979 | 44.31288 | 32903 ft | 420 kts | 338° |
| 2026-05-07 22:18 | 56.98322 | 44.26290 | 32905 ft | 420 kts | 338° |
| 2026-05-07 22:19 | 57.03871 | 44.22944 | 32910 ft | 419 kts | 338° |
| 2026-05-07 22:19 | 57.09410 | 44.19602 | 32906 ft | 418 kts | 338° |
| 2026-05-07 22:20 | 57.14940 | 44.16251 | 32908 ft | 418 kts | 338° |
| 2026-05-07 22:20 | 57.20430 | 44.12912 | 32908 ft | 418 kts | 338° |
| 2026-05-07 22:21 | 57.25947 | 44.09541 | 32908 ft | 417 kts | 338° |
| 2026-05-07 22:21 | 57.31462 | 44.06163 | 32908 ft | 417 kts | 337° |
| 2026-05-07 22:22 | 57.36971 | 44.02788 | 32909 ft | 417 kts | 337° |
| 2026-05-07 22:22 | 57.42473 | 43.99404 | 32908 ft | 416 kts | 337° |
| 2026-05-07 22:23 | 57.47974 | 43.96005 | 32917 ft | 416 kts | 337° |
| 2026-05-07 22:23 | 57.53465 | 43.92593 | 32907 ft | 416 kts | 336° |
| 2026-05-07 22:24 | 57.58947 | 43.89174 | 32907 ft | 416 kts | 336° |
| 2026-05-07 22:24 | 57.64434 | 43.85753 | 32905 ft | 416 kts | 336° |
| 2026-05-07 22:25 | 57.69914 | 43.82316 | 32909 ft | 416 kts | 336° |
| 2026-05-07 22:25 | 57.75397 | 43.78877 | 32911 ft | 416 kts | 336° |
| 2026-05-07 22:26 | 57.80844 | 43.75442 | 32916 ft | 416 kts | 336° |
| 2026-05-07 22:26 | 57.86324 | 43.71981 | 32920 ft | 415 kts | 336° |
| 2026-05-07 22:27 | 57.91801 | 43.68499 | 32923 ft | 415 kts | 336° |
| 2026-05-07 22:27 | 57.97275 | 43.65013 | 32924 ft | 415 kts | 336° |
| 2026-05-07 22:28 | 58.02742 | 43.61527 | 32930 ft | 415 kts | 336° |
| 2026-05-07 22:28 | 58.08209 | 43.58034 | 32927 ft | 415 kts | 335° |
| 2026-05-07 22:29 | 58.13672 | 43.54540 | 32933 ft | 414 kts | 335° |
| 2026-05-07 22:29 | 58.19132 | 43.51025 | 32933 ft | 414 kts | 335° |
| 2026-05-07 22:30 | 58.24588 | 43.47492 | 32937 ft | 414 kts | 335° |
| 2026-05-07 22:30 | 58.30042 | 43.43966 | 32937 ft | 414 kts | 335° |
| 2026-05-07 22:31 | 58.35494 | 43.40428 | 32942 ft | 414 kts | 335° |
| 2026-05-07 22:31 | 58.40929 | 43.36847 | 32941 ft | 412 kts | 332° |
| 2026-05-07 22:31 | 58.43425 | 43.34342 | 32940 ft | 401 kts | 319° |
| 2026-05-07 22:32 | 58.45505 | 43.30909 | 32945 ft | 392 kts | 307° |
| 2026-05-07 22:32 | 58.47103 | 43.26837 | 32940 ft | 386 kts | 296° |
| 2026-05-07 22:32 | 58.48215 | 43.22217 | 32935 ft | 381 kts | 285° |
| 2026-05-07 22:33 | 58.48810 | 43.12280 | 32917 ft | 378 kts | 267° |
| 2026-05-07 22:33 | 58.48494 | 43.02236 | 32920 ft | 379 kts | 267° |
| 2026-05-07 22:34 | 58.48175 | 42.92193 | 32923 ft | 379 kts | 267° |
| 2026-05-07 22:34 | 58.47846 | 42.82147 | 32926 ft | 379 kts | 266° |
| 2026-05-07 22:35 | 58.47516 | 42.72095 | 32943 ft | 379 kts | 266° |
| 2026-05-07 22:35 | 58.47179 | 42.62052 | 32944 ft | 378 kts | 266° |
| 2026-05-07 22:36 | 58.46834 | 42.52030 | 32941 ft | 378 kts | 266° |
| 2026-05-07 22:36 | 58.46473 | 42.42023 | 32951 ft | 378 kts | 266° |
| 2026-05-07 22:37 | 58.46109 | 42.32013 | 32952 ft | 377 kts | 266° |
| 2026-05-07 22:37 | 58.45736 | 42.22019 | 32952 ft | 377 kts | 266° |
| 2026-05-07 22:38 | 58.45356 | 42.12036 | 32946 ft | 377 kts | 266° |
| 2026-05-07 22:38 | 58.45036 | 42.03736 | 32950 ft | 377 kts | 266° |
| 2026-05-07 22:39 | 58.44643 | 41.93756 | 32956 ft | 377 kts | 266° |
| 2026-05-07 22:39 | 58.44249 | 41.83779 | 32959 ft | 377 kts | 266° |
| 2026-05-07 22:40 | 58.43849 | 41.73810 | 32960 ft | 376 kts | 265° |
| 2026-05-07 22:40 | 58.43434 | 41.63853 | 32960 ft | 376 kts | 265° |
| 2026-05-07 22:41 | 58.43010 | 41.53908 | 32961 ft | 376 kts | 265° |
| 2026-05-07 22:41 | 58.42577 | 41.43957 | 32958 ft | 376 kts | 265° |
| 2026-05-07 22:42 | 58.42137 | 41.34007 | 32965 ft | 376 kts | 265° |
| 2026-05-07 22:42 | 58.41697 | 41.24125 | 32949 ft | 376 kts | 265° |
| 2026-05-07 22:43 | 58.41246 | 41.14173 | 32959 ft | 376 kts | 265° |
| 2026-05-07 22:43 | 58.40786 | 41.04223 | 32964 ft | 377 kts | 265° |
| 2026-05-07 22:44 | 58.40318 | 40.94277 | 32960 ft | 377 kts | 265° |
| 2026-05-07 22:44 | 58.39845 | 40.84330 | 32963 ft | 377 kts | 264° |
| 2026-05-07 22:45 | 58.39361 | 40.74385 | 32966 ft | 377 kts | 264° |
| 2026-05-07 22:45 | 58.38869 | 40.64497 | 32966 ft | 377 kts | 264° |
| 2026-05-07 22:46 | 58.38367 | 40.54544 | 32962 ft | 377 kts | 264° |
| 2026-05-07 22:46 | 58.37861 | 40.44640 | 32989 ft | 374 kts | 264° |
| 2026-05-07 22:47 | 58.37355 | 40.34819 | 33004 ft | 371 kts | 264° |
| 2026-05-07 22:47 | 58.36846 | 40.25056 | 32999 ft | 369 kts | 264° |
| 2026-05-07 22:48 | 58.36329 | 40.15350 | 32996 ft | 368 kts | 264° |
| 2026-05-07 22:48 | 58.35804 | 40.05688 | 32993 ft | 367 kts | 264° |
| 2026-05-07 22:48 | 58.35541 | 40.00877 | 32521 ft | 364 kts | 264° |
| 2026-05-07 22:49 | 58.35277 | 39.96092 | 32071 ft | 362 kts | 264° |
| 2026-05-07 22:49 | 58.35005 | 39.91292 | 31945 ft | 366 kts | 264° |
| 2026-05-07 22:49 | 58.34731 | 39.86465 | 31969 ft | 368 kts | 264° |
| 2026-05-07 22:50 | 58.33885 | 39.76852 | 31977 ft | 370 kts | 253° |
| 2026-05-07 22:50 | 58.31544 | 39.68120 | 31969 ft | 376 kts | 237° |
| 2026-05-07 22:51 | 58.27873 | 39.60999 | 31971 ft | 383 kts | 227° |
| 2026-05-07 22:51 | 58.23885 | 39.54271 | 31977 ft | 383 kts | 227° |
| 2026-05-07 22:52 | 58.19903 | 39.47536 | 31960 ft | 384 kts | 227° |
| 2026-05-07 22:52 | 58.15914 | 39.40809 | 31970 ft | 384 kts | 227° |
| 2026-05-07 22:53 | 58.11909 | 39.34092 | 31966 ft | 385 kts | 227° |
| 2026-05-07 22:53 | 58.07897 | 39.27382 | 31965 ft | 385 kts | 227° |
| 2026-05-07 22:54 | 58.03870 | 39.20694 | 31964 ft | 386 kts | 227° |
| 2026-05-07 22:54 | 57.99829 | 39.14003 | 31961 ft | 386 kts | 227° |
| 2026-05-07 22:55 | 57.95792 | 39.07325 | 31964 ft | 387 kts | 227° |
| 2026-05-07 22:55 | 57.91747 | 39.00639 | 31958 ft | 387 kts | 226° |
| 2026-05-07 22:56 | 57.87689 | 38.93968 | 31956 ft | 388 kts | 226° |
| 2026-05-07 22:56 | 57.83627 | 38.87313 | 31958 ft | 388 kts | 226° |
| 2026-05-07 22:57 | 57.79555 | 38.80655 | 31961 ft | 388 kts | 226° |
| 2026-05-07 22:57 | 57.75489 | 38.74021 | 31958 ft | 387 kts | 226° |
| 2026-05-07 22:58 | 57.71429 | 38.67409 | 31958 ft | 387 kts | 226° |
| 2026-05-07 22:58 | 57.67351 | 38.60809 | 31954 ft | 388 kts | 226° |
| 2026-05-07 22:59 | 57.63269 | 38.54229 | 31945 ft | 388 kts | 226° |
| 2026-05-07 22:59 | 57.61229 | 38.50949 | 31477 ft | 389 kts | 226° |
| 2026-05-07 22:59 | 57.59186 | 38.47661 | 30941 ft | 385 kts | 225° |
| 2026-05-07 22:59 | 57.57171 | 38.44421 | 30454 ft | 380 kts | 225° |
| 2026-05-07 23:00 | 57.55056 | 38.41475 | 29932 ft | 383 kts | 214° |
| 2026-05-07 23:00 | 57.52578 | 38.39589 | 29311 ft | 385 kts | 205° |
| 2026-05-07 23:00 | 57.50065 | 38.37998 | 28849 ft | 379 kts | 205° |
| 2026-05-07 23:00 | 57.47584 | 38.36449 | 28379 ft | 372 kts | 205° |
| 2026-05-07 23:01 | 57.45151 | 38.34934 | 27921 ft | 366 kts | 205° |
| 2026-05-07 23:01 | 57.42763 | 38.33446 | 27492 ft | 358 kts | 205° |
| 2026-05-07 23:01 | 57.40426 | 38.31985 | 27067 ft | 352 kts | 205° |
| 2026-05-07 23:01 | 57.38126 | 38.30545 | 26645 ft | 345 kts | 205° |
| 2026-05-07 23:02 | 57.35869 | 38.29129 | 26235 ft | 341 kts | 205° |
| 2026-05-07 23:02 | 57.33626 | 38.27723 | 25847 ft | 339 kts | 205° |
| 2026-05-07 23:02 | 57.31405 | 38.26326 | 25462 ft | 337 kts | 205° |
| 2026-05-07 23:02 | 57.29183 | 38.24926 | 25078 ft | 335 kts | 205° |
| 2026-05-07 23:03 | 57.26979 | 38.23543 | 24703 ft | 334 kts | 204° |
| 2026-05-07 23:03 | 57.24785 | 38.22181 | 24324 ft | 332 kts | 204° |
| 2026-05-07 23:03 | 57.22598 | 38.20831 | 23937 ft | 330 kts | 204° |
| 2026-05-07 23:03 | 57.20426 | 38.19491 | 23560 ft | 329 kts | 204° |
| 2026-05-07 23:04 | 57.18264 | 38.18143 | 23139 ft | 327 kts | 204° |
| 2026-05-07 23:04 | 57.16115 | 38.16797 | 22746 ft | 326 kts | 204° |
| 2026-05-07 23:04 | 57.13975 | 38.15460 | 22363 ft | 324 kts | 204° |
| 2026-05-07 23:04 | 57.11844 | 38.14133 | 21980 ft | 323 kts | 204° |
| 2026-05-07 23:05 | 57.09721 | 38.12817 | 21591 ft | 321 kts | 204° |
| 2026-05-07 23:05 | 57.07607 | 38.11514 | 21205 ft | 320 kts | 204° |
| 2026-05-07 23:05 | 57.05496 | 38.10217 | 20818 ft | 318 kts | 204° |
| 2026-05-07 23:05 | 57.03400 | 38.08928 | 20447 ft | 318 kts | 205° |
| 2026-05-07 23:06 | 57.01301 | 38.07633 | 20038 ft | 318 kts | 205° |
| 2026-05-07 23:06 | 56.99197 | 38.06338 | 19642 ft | 318 kts | 205° |
| 2026-05-07 23:06 | 56.97102 | 38.05054 | 19247 ft | 317 kts | 204° |
| 2026-05-07 23:06 | 56.95017 | 38.03783 | 18858 ft | 315 kts | 204° |
| 2026-05-07 23:07 | 56.92939 | 38.02518 | 18466 ft | 314 kts | 204° |
| 2026-05-07 23:07 | 56.90872 | 38.01255 | 18060 ft | 313 kts | 204° |
| 2026-05-07 23:07 | 56.88811 | 37.99998 | 17658 ft | 311 kts | 204° |
| 2026-05-07 23:07 | 56.86763 | 37.98751 | 17283 ft | 309 kts | 204° |
| 2026-05-07 23:08 | 56.84724 | 37.97508 | 16907 ft | 308 kts | 204° |
| 2026-05-07 23:08 | 56.82700 | 37.96281 | 16534 ft | 305 kts | 204° |
| 2026-05-07 23:08 | 56.80688 | 37.95067 | 16165 ft | 303 kts | 204° |
| 2026-05-07 23:08 | 56.78689 | 37.93861 | 15800 ft | 302 kts | 204° |
| 2026-05-07 23:09 | 56.76698 | 37.92657 | 15437 ft | 300 kts | 204° |
| 2026-05-07 23:09 | 56.74729 | 37.91463 | 15077 ft | 298 kts | 204° |
| 2026-05-07 23:09 | 56.72766 | 37.90270 | 14722 ft | 296 kts | 204° |
| 2026-05-07 23:09 | 56.70817 | 37.89087 | 14365 ft | 294 kts | 204° |
| 2026-05-07 23:10 | 56.68881 | 37.87915 | 14000 ft | 292 kts | 204° |
| 2026-05-07 23:10 | 56.66957 | 37.86752 | 13635 ft | 291 kts | 204° |
| 2026-05-07 23:10 | 56.65044 | 37.85599 | 13253 ft | 289 kts | 204° |
| 2026-05-07 23:10 | 56.63141 | 37.84454 | 12893 ft | 287 kts | 204° |
| 2026-05-07 23:11 | 56.61278 | 37.83336 | 12536 ft | 285 kts | 203° |
| 2026-05-07 23:11 | 56.59380 | 37.82200 | 12180 ft | 283 kts | 203° |
| 2026-05-07 23:11 | 56.57543 | 37.81104 | 11822 ft | 281 kts | 203° |
| 2026-05-07 23:11 | 56.55690 | 37.79999 | 11470 ft | 279 kts | 203° |
| 2026-05-07 23:12 | 56.53851 | 37.78903 | 11128 ft | 277 kts | 203° |
| 2026-05-07 23:12 | 56.52023 | 37.77816 | 10748 ft | 275 kts | 203° |
| 2026-05-07 23:12 | 56.50211 | 37.76733 | 10469 ft | 274 kts | 203° |
| 2026-05-07 23:12 | 56.48411 | 37.75660 | 10231 ft | 270 kts | 202° |
| 2026-05-07 23:13 | 56.46616 | 37.74596 | 10145 ft | 272 kts | 202° |
| 2026-05-07 23:13 | 56.44817 | 37.73526 | 10031 ft | 272 kts | 202° |
| 2026-05-07 23:13 | 56.43012 | 37.72449 | 9724 ft | 274 kts | 202° |
| 2026-05-07 23:13 | 56.41200 | 37.71369 | 9249 ft | 273 kts | 202° |
| 2026-05-07 23:14 | 56.39400 | 37.70297 | 8785 ft | 272 kts | 202° |
| 2026-05-07 23:14 | 56.37620 | 37.69240 | 8361 ft | 269 kts | 202° |
| 2026-05-07 23:14 | 56.35841 | 37.68185 | 7947 ft | 267 kts | 202° |
| 2026-05-07 23:14 | 56.34078 | 37.67145 | 7467 ft | 267 kts | 202° |
| 2026-05-07 23:15 | 56.32320 | 37.66109 | 7095 ft | 264 kts | 201° |
| 2026-05-07 23:15 | 56.30575 | 37.65082 | 6652 ft | 263 kts | 201° |
| 2026-05-07 23:15 | 56.28844 | 37.64066 | 6210 ft | 261 kts | 201° |
| 2026-05-07 23:15 | 56.27134 | 37.63066 | 5752 ft | 256 kts | 201° |
| 2026-05-07 23:16 | 56.25448 | 37.62074 | 5313 ft | 255 kts | 200° |
| 2026-05-07 23:16 | 56.23783 | 37.61091 | 5075 ft | 246 kts | 200° |
| 2026-05-07 23:16 | 56.22193 | 37.60166 | 4947 ft | 234 kts | 198° |
| 2026-05-07 23:16 | 56.20604 | 37.59859 | 4821 ft | 228 kts | 178° |
| 2026-05-07 23:17 | 56.19069 | 37.60595 | 4691 ft | 231 kts | 158° |
| 2026-05-07 23:17 | 56.17760 | 37.62310 | 4563 ft | 237 kts | 138° |
| 2026-05-07 23:17 | 56.16616 | 37.64437 | 4439 ft | 236 kts | 138° |
| 2026-05-07 23:17 | 56.15471 | 37.66547 | 4302 ft | 236 kts | 138° |
| 2026-05-07 23:18 | 56.14324 | 37.68646 | 4179 ft | 235 kts | 138° |
| 2026-05-07 23:18 | 56.13181 | 37.70738 | 4048 ft | 234 kts | 138° |
| 2026-05-07 23:18 | 56.11912 | 37.72373 | 3866 ft | 215 kts | 160° |
| 2026-05-07 23:18 | 56.10505 | 37.72871 | 3807 ft | 203 kts | 183° |
| 2026-05-07 23:19 | 56.09155 | 37.72318 | 3769 ft | 199 kts | 206° |
| 2026-05-07 23:19 | 56.07931 | 37.71176 | 3721 ft | 198 kts | 208° |
| 2026-05-07 23:19 | 56.06728 | 37.70048 | 3684 ft | 188 kts | 208° |
| 2026-05-07 23:19 | 56.05623 | 37.69019 | 3639 ft | 170 kts | 208° |
| 2026-05-07 23:20 | 56.04611 | 37.68076 | 3570 ft | 159 kts | 207° |
| 2026-05-07 23:20 | 56.03644 | 37.67174 | 3452 ft | 155 kts | 207° |
| 2026-05-07 23:20 | 56.02692 | 37.66284 | 3289 ft | 154 kts | 213° |
| 2026-05-07 23:20 | 56.02064 | 37.65696 | 3173 ft | 154 kts | 212° |
| 2026-05-07 23:21 | 56.01141 | 37.64744 | 2985 ft | 152 kts | 223° |
| 2026-05-07 23:21 | 56.00463 | 37.63344 | 2793 ft | 148 kts | 243° |
| 2026-05-07 23:21 | 56.00117 | 37.61636 | 2610 ft | 146 kts | 256° |
| 2026-05-07 23:21 | 55.99858 | 37.59871 | 2424 ft | 147 kts | 256° |
| 2026-05-07 23:22 | 55.99601 | 37.58125 | 2234 ft | 142 kts | 257° |
| 2026-05-07 23:22 | 55.99352 | 37.56437 | 2051 ft | 139 kts | 256° |
| 2026-05-07 23:22 | 55.99107 | 37.54778 | 1865 ft | 137 kts | 257° |
| 2026-05-07 23:22 | 55.98865 | 37.53133 | 1697 ft | 137 kts | 257° |
| 2026-05-07 23:23 | 55.98622 | 37.51490 | 1485 ft | 137 kts | 257° |
| 2026-05-07 23:23 | 55.98375 | 37.49824 | 1300 ft | 139 kts | 257° |
| 2026-05-07 23:23 | 55.98124 | 37.48141 | 1108 ft | 141 kts | 257° |
| 2026-05-07 23:23 | 55.97868 | 37.46454 | 904 ft | 142 kts | 258° |
| 2026-05-07 23:24 | 55.97621 | 37.44764 | 733 ft | 141 kts | 258° |
| 2026-05-07 23:24 | 55.97387 | 37.43121 | 645 ft | 128 kts | 255° |
| 2026-05-07 23:24 | 55.97208 | 37.41924 | 643 ft | 73 kts | 255° |
| 2026-05-07 23:24 | 55.97117 | 37.41320 | 642 ft | 38 kts | 255° |
| 2026-05-07 23:25 | 55.97052 | 37.40882 | 646 ft | 36 kts | 255° |
| 2026-05-07 23:25 | 55.96990 | 37.40470 | 640 ft | 33 kts | 254° |
| 2026-05-07 23:25 | 55.96943 | 37.40156 | 641 ft | 14 kts | 256° |
| 2026-05-07 23:25 | 55.96976 | 37.40049 | 640 ft | 11 kts | 343° |
| 2026-05-07 23:26 | 55.97069 | 37.40004 | 641 ft | 19 kts | 345° |
| 2026-05-07 23:26 | 55.97199 | 37.39941 | 642 ft | 20 kts | 344° |
| 2026-05-07 23:26 | 55.97304 | 37.39892 | 638 ft | 13 kts | 346° |
| 2026-05-07 23:26 | 55.97392 | 37.39851 | 647 ft | 13 kts | 345° |
| 2026-05-07 23:27 | 55.97557 | 37.39765 | 639 ft | 11 kts | 344° |
| 2026-05-07 23:27 | 55.97604 | 37.39772 | 644 ft | 6 kts | 40° |
| 2026-05-07 23:27 | 55.97617 | 37.39863 | 641 ft | 11 kts | 77° |
| 2026-05-07 23:28 | 55.97643 | 37.39961 | 643 ft | 7 kts | 19° |
| 2026-05-07 23:28 | 55.97689 | 37.39941 | 642 ft | 3 kts | 345° |
| 2026-05-07 23:28 | 55.97691 | 37.39940 | 646 ft | 0 kts | 345° |